createdAt,value
2023-02-16T00:00:34.049Z,3.73
2023-02-16T00:03:35.800Z,3.70
2023-02-16T00:06:37.374Z,3.67
2023-02-16T00:09:38.995Z,3.64
2023-02-16T00:12:59.191Z,3.67
2023-02-16T00:16:00.877Z,3.74
2023-02-16T00:19:05.860Z,3.79
2023-02-16T00:22:08.230Z,3.84
2023-02-16T00:25:10.697Z,3.87
2023-02-16T00:28:18.570Z,3.90
2023-02-16T00:31:23.486Z,3.92
2023-02-16T00:34:37.054Z,3.95
2023-02-16T00:37:38.629Z,4.00
2023-02-16T00:40:41.229Z,4.01
2023-02-16T00:43:42.891Z,4.01
2023-02-16T00:46:45.470Z,3.97
2023-02-16T00:49:48.825Z,3.92
2023-02-16T00:52:52.131Z,3.88
2023-02-16T00:55:53.953Z,3.83
2023-02-16T00:58:55.533Z,3.74
2023-02-16T01:01:57.680Z,3.71
2023-02-16T01:04:59.496Z,3.74
2023-02-16T01:08:20.998Z,3.78
2023-02-16T01:11:24.159Z,3.77
2023-02-16T01:14:26.107Z,3.68
2023-02-16T01:17:27.865Z,3.58
2023-02-16T01:20:29.452Z,3.51
2023-02-16T01:23:31.051Z,3.45
2023-02-16T01:26:39.216Z,3.41
2023-02-16T01:29:42.223Z,3.37
2023-02-16T01:32:47.444Z,3.34
2023-02-16T01:35:50.051Z,3.30
2023-02-16T01:38:51.773Z,3.27
2023-02-16T01:42:02.358Z,3.25
2023-02-16T01:45:13.466Z,3.25
2023-02-16T01:48:22.263Z,3.29
2023-02-16T01:51:36.194Z,3.34
2023-02-16T01:54:51.732Z,3.34
2023-02-16T01:58:00.306Z,3.31
2023-02-16T02:01:02.107Z,3.25
2023-02-16T02:04:38.386Z,3.16
2023-02-16T02:08:17.481Z,3.08
2023-02-16T02:11:23.585Z,3.03
2023-02-16T02:14:36.189Z,3.00
2023-02-16T02:17:38.435Z,3.00
2023-02-16T02:21:11.113Z,3.00
2023-02-16T02:24:24.958Z,2.94
2023-02-16T02:27:47.266Z,2.91
2023-02-16T02:31:00.130Z,2.90
2023-02-16T02:34:21.076Z,2.94
2023-02-16T02:37:49.903Z,2.99
2023-02-16T02:41:04.814Z,3.04
2023-02-16T02:44:08.966Z,3.08
2023-02-16T02:47:10.875Z,3.11
2023-02-16T02:50:37.314Z,3.13
2023-02-16T02:54:15.536Z,3.20
2023-02-16T02:58:02.401Z,3.26
2023-02-16T03:01:05.457Z,3.26
2023-02-16T03:04:09.145Z,3.22
2023-02-16T03:07:11.948Z,3.10
2023-02-16T03:10:37.236Z,2.98
2023-02-16T03:13:52.796Z,2.86
2023-02-16T03:17:18.639Z,2.79
2023-02-16T03:20:41.504Z,2.71
2023-02-16T03:24:03.390Z,2.66
2023-02-16T03:27:24.149Z,2.58
2023-02-16T03:30:26.820Z,2.49
2023-02-16T03:33:30.374Z,2.45
2023-02-16T03:36:34.350Z,2.45
2023-02-16T03:39:55.989Z,2.48
2023-02-16T03:43:00.177Z,2.52
2023-02-16T03:46:01.834Z,2.54
2023-02-16T03:49:03.775Z,2.54
2023-02-16T03:52:05.447Z,2.50
2023-02-16T03:55:07.139Z,2.44
2023-02-16T03:58:10.854Z,2.40
2023-02-16T04:01:12.474Z,2.37
2023-02-16T04:04:14.853Z,2.33
2023-02-16T04:07:16.634Z,2.31
2023-02-16T04:10:23.027Z,2.33
2023-02-16T04:13:24.752Z,2.34
2023-02-16T04:16:26.320Z,2.35
2023-02-16T04:19:28.014Z,2.34
2023-02-16T04:22:29.746Z,2.31
2023-02-16T04:25:31.620Z,2.25
2023-02-16T04:28:33.211Z,2.20
2023-02-16T04:31:35.209Z,2.15
2023-02-16T04:34:37.005Z,2.10
2023-02-16T04:37:38.756Z,2.10
2023-02-16T04:40:40.456Z,2.13
2023-02-16T04:43:42.145Z,2.15
2023-02-16T04:46:43.699Z,2.18
2023-02-16T04:49:45.332Z,2.23
2023-02-16T04:52:47.091Z,2.27
2023-02-16T04:55:49.766Z,2.33
2023-02-16T04:58:51.382Z,2.36
2023-02-16T05:01:56.072Z,2.35
2023-02-16T05:04:57.757Z,2.28
2023-02-16T05:07:59.353Z,2.22
2023-02-16T05:11:19.581Z,2.14
2023-02-16T05:14:42.770Z,2.05
2023-02-16T05:17:44.462Z,1.97
2023-02-16T05:21:04.968Z,1.93
2023-02-16T05:24:09.926Z,1.93
2023-02-16T05:27:14.586Z,1.93
2023-02-16T05:30:16.342Z,1.95
2023-02-16T05:33:17.995Z,1.98
2023-02-16T05:36:20.091Z,1.99
2023-02-16T05:39:22.105Z,2.00
2023-02-16T05:42:23.656Z,2.02
2023-02-16T05:45:25.183Z,2.05
2023-02-16T05:48:27.188Z,2.06
2023-02-16T05:51:29.046Z,2.10
2023-02-16T05:54:30.664Z,2.13
2023-02-16T05:57:34.948Z,2.15
2023-02-16T06:00:38.326Z,2.14
2023-02-16T06:03:39.910Z,2.06
2023-02-16T06:06:42.087Z,1.99
2023-02-16T06:09:43.629Z,1.92
2023-02-16T06:12:45.301Z,1.87
2023-02-16T06:15:47.458Z,1.84
2023-02-16T06:18:49.036Z,1.82
2023-02-16T06:21:50.568Z,1.83
2023-02-16T06:24:52.214Z,1.90
2023-02-16T06:27:55.152Z,1.96
2023-02-16T06:30:56.833Z,2.01
2023-02-16T06:33:58.506Z,2.03
2023-02-16T06:37:00.057Z,2.05
2023-02-16T06:40:01.639Z,2.04
2023-02-16T06:43:03.421Z,2.04
2023-02-16T06:46:05.081Z,2.05
2023-02-16T06:49:06.670Z,2.07
2023-02-16T06:52:08.299Z,2.09
2023-02-16T06:55:09.850Z,2.14
2023-02-16T06:58:11.830Z,2.18
2023-02-16T07:01:13.564Z,2.24
2023-02-16T07:04:15.207Z,2.30
2023-02-16T07:07:16.852Z,2.36
2023-02-16T07:10:20.138Z,2.42
2023-02-16T07:13:21.749Z,2.49
2023-02-16T07:16:23.542Z,2.59
2023-02-16T07:19:25.601Z,2.68
2023-02-16T07:22:27.169Z,2.76
2023-02-16T07:25:28.834Z,2.82
2023-02-16T07:28:30.646Z,2.92
2023-02-16T07:31:32.330Z,3.04
2023-02-16T07:34:34.016Z,3.13
2023-02-16T07:37:35.755Z,3.25
2023-02-16T07:40:37.375Z,3.36
2023-02-16T07:43:39.387Z,3.49
2023-02-16T07:46:41.026Z,3.60
2023-02-16T07:49:42.654Z,3.72
2023-02-16T07:52:44.198Z,3.85
2023-02-16T07:55:46.183Z,3.96
2023-02-16T07:58:47.928Z,4.09
2023-02-16T08:01:49.617Z,4.25
2023-02-16T08:04:52.880Z,4.40
2023-02-16T08:07:54.951Z,4.58
2023-02-16T08:10:56.580Z,4.77
2023-02-16T08:14:01.487Z,5.00
2023-02-16T08:17:04.158Z,5.25
2023-02-16T08:20:07.671Z,5.50
2023-02-16T08:23:10.416Z,5.76
2023-02-16T08:26:12.279Z,6.00
2023-02-16T08:29:14.928Z,6.20
2023-02-16T08:32:16.655Z,6.41
2023-02-16T08:35:18.557Z,6.61
2023-02-16T08:38:20.889Z,6.81
2023-02-16T08:41:24.322Z,6.99
2023-02-16T08:44:26.676Z,7.17
2023-02-16T08:47:29.725Z,7.34
2023-02-16T08:50:32.758Z,7.50
2023-02-16T08:53:35.173Z,7.66
2023-02-16T08:56:36.753Z,7.82
2023-02-16T08:59:38.374Z,7.93
2023-02-16T09:02:39.984Z,8.01
2023-02-16T09:05:42.226Z,8.11
2023-02-16T09:08:44.752Z,8.18
2023-02-16T09:11:46.979Z,8.24
2023-02-16T09:14:48.546Z,8.29
2023-02-16T09:17:50.184Z,8.37
2023-02-16T09:20:51.819Z,8.46
2023-02-16T09:23:55.759Z,8.54
2023-02-16T09:26:57.362Z,8.65
2023-02-16T09:29:59.014Z,8.74
2023-02-16T09:33:00.869Z,8.85
2023-02-16T09:36:06.042Z,8.96
2023-02-16T09:39:08.174Z,9.04
2023-02-16T09:42:19.398Z,9.12
2023-02-16T09:45:21.855Z,9.21
2023-02-16T09:48:35.360Z,9.32
2023-02-16T09:51:41.139Z,9.43
2023-02-16T09:55:00.244Z,9.51
2023-02-16T09:58:03.149Z,9.62
2023-02-16T10:01:08.702Z,9.74
2023-02-16T10:04:43.839Z,9.85
2023-02-16T10:08:13.336Z,9.98
2023-02-16T10:12:00.747Z,10.13
2023-02-16T10:15:16.907Z,10.30
2023-02-16T10:18:34.362Z,10.45
2023-02-16T10:21:36.447Z,10.52
2023-02-16T10:24:44.952Z,10.63
2023-02-16T10:27:50.551Z,10.75
2023-02-16T10:31:03.283Z,10.84
2023-02-16T10:34:30.269Z,10.92
2023-02-16T10:37:46.713Z,10.98
2023-02-16T10:40:59.386Z,11.07
2023-02-16T10:44:27.080Z,11.15
2023-02-16T10:47:33.616Z,11.20
2023-02-16T10:50:43.986Z,11.26
2023-02-16T10:53:54.559Z,11.35
2023-02-16T10:57:00.985Z,11.47
2023-02-16T11:00:07.075Z,11.55
2023-02-16T11:03:12.339Z,11.66
2023-02-16T11:06:17.402Z,11.77
2023-02-16T11:09:27.843Z,11.85
2023-02-16T11:12:39.097Z,11.92
2023-02-16T11:15:41.216Z,12.03
2023-02-16T11:19:06.028Z,12.12
2023-02-16T11:22:24.937Z,12.19
2023-02-16T11:25:27.162Z,12.28
2023-02-16T11:28:36.398Z,12.34
2023-02-16T11:31:39.894Z,12.46
2023-02-16T11:34:50.964Z,12.61
2023-02-16T11:37:52.680Z,12.72
2023-02-16T11:40:54.649Z,12.80
2023-02-16T11:43:56.778Z,12.87
2023-02-16T11:46:59.929Z,12.94
2023-02-16T11:50:13.511Z,13.02
2023-02-16T11:53:25.190Z,13.10
2023-02-16T11:56:29.381Z,13.20
2023-02-16T11:59:37.307Z,13.37
2023-02-16T12:03:06.724Z,13.55
2023-02-16T12:06:08.506Z,13.67
2023-02-16T12:09:30.932Z,13.69
2023-02-16T12:12:43.756Z,13.71
2023-02-16T12:15:51.134Z,13.76
2023-02-16T12:19:04.918Z,13.83
2023-02-16T12:22:09.959Z,13.91
2023-02-16T12:25:26.093Z,13.95
2023-02-16T12:28:51.099Z,14.04
2023-02-16T12:32:14.623Z,14.17
2023-02-16T12:35:40.922Z,14.35
2023-02-16T12:39:07.980Z,14.46
2023-02-16T12:42:23.817Z,14.56
2023-02-16T12:45:28.156Z,14.63
2023-02-16T12:48:50.124Z,14.75
2023-02-16T12:52:24.400Z,14.90
2023-02-16T12:55:39.486Z,14.97
2023-02-16T12:58:45.262Z,15.12
2023-02-16T13:01:48.565Z,15.21
2023-02-16T13:04:54.501Z,15.29
2023-02-16T13:08:20.294Z,15.35
2023-02-16T13:11:30.769Z,15.35
2023-02-16T13:14:36.310Z,15.40
2023-02-16T13:17:43.526Z,15.42
2023-02-16T13:20:49.732Z,15.44
2023-02-16T13:24:07.491Z,15.46
2023-02-16T13:27:56.262Z,15.45
2023-02-16T13:31:16.432Z,15.51
2023-02-16T13:34:41.365Z,15.61
2023-02-16T13:37:49.079Z,15.65
2023-02-16T13:40:59.740Z,15.72
2023-02-16T13:44:09.433Z,15.89
2023-02-16T13:47:18.333Z,16.02
2023-02-16T13:50:23.778Z,16.10
2023-02-16T13:53:25.770Z,16.11
2023-02-16T13:56:30.818Z,16.12
2023-02-16T13:59:36.018Z,16.21
2023-02-16T14:02:52.794Z,16.31
2023-02-16T14:05:56.384Z,16.36
2023-02-16T14:09:16.412Z,16.37
2023-02-16T14:12:36.181Z,16.37
2023-02-16T14:15:51.118Z,16.40
2023-02-16T14:19:05.929Z,16.42
2023-02-16T14:22:11.684Z,16.40
2023-02-16T14:25:27.510Z,16.32
2023-02-16T14:28:32.058Z,16.29
2023-02-16T14:31:42.320Z,16.15
2023-02-16T14:34:57.928Z,16.02
2023-02-16T14:38:01.073Z,15.99
2023-02-16T14:41:27.432Z,15.93
2023-02-16T14:44:40.874Z,15.91
2023-02-16T14:47:42.424Z,15.93
2023-02-16T14:51:14.670Z,15.87
2023-02-16T14:54:37.214Z,15.80
2023-02-16T14:57:53.407Z,15.79
2023-02-16T15:01:14.198Z,15.79
2023-02-16T15:04:30.736Z,15.79
2023-02-16T15:07:32.397Z,15.75
2023-02-16T15:10:33.995Z,15.74
2023-02-16T15:13:35.726Z,15.71
2023-02-16T15:16:41.284Z,15.68
2023-02-16T15:19:43.966Z,15.67
2023-02-16T15:22:54.288Z,15.66
2023-02-16T15:26:03.559Z,15.59
2023-02-16T15:29:23.188Z,15.48
2023-02-16T15:32:25.019Z,15.40
2023-02-16T15:35:30.728Z,15.30
2023-02-16T15:38:35.203Z,15.21
2023-02-16T15:41:39.079Z,15.15
2023-02-16T15:44:40.673Z,15.09
2023-02-16T15:47:44.175Z,15.03
2023-02-16T15:50:48.335Z,14.96
2023-02-16T15:53:51.516Z,14.84
2023-02-16T15:56:55.153Z,14.72
2023-02-16T15:59:58.709Z,14.62
2023-02-16T16:03:01.122Z,14.52
2023-02-16T16:06:06.129Z,14.43
2023-02-16T16:09:18.175Z,14.35
2023-02-16T16:12:20.809Z,14.24
2023-02-16T16:15:25.835Z,14.10
2023-02-16T16:18:49.765Z,13.97
2023-02-16T16:21:55.622Z,13.84
2023-02-16T16:24:57.301Z,13.72
2023-02-16T16:27:59.234Z,13.59
2023-02-16T16:31:15.337Z,13.43
2023-02-16T16:34:40.134Z,13.24
2023-02-16T16:37:41.760Z,13.05
2023-02-16T16:40:50.572Z,12.89
2023-02-16T16:43:55.330Z,12.74
2023-02-16T16:46:57.030Z,12.60
2023-02-16T16:50:18.439Z,12.46
2023-02-16T16:53:39.866Z,12.31
2023-02-16T16:56:41.825Z,12.14
2023-02-16T16:59:43.408Z,11.95
2023-02-16T17:02:45.535Z,11.73
2023-02-16T17:05:47.475Z,11.52
2023-02-16T17:08:49.441Z,11.31
2023-02-16T17:11:51.010Z,11.08
2023-02-16T17:14:53.578Z,10.84
2023-02-16T17:17:55.639Z,10.64
2023-02-16T17:20:57.273Z,10.46
2023-02-16T17:23:58.836Z,10.26
2023-02-16T17:27:00.399Z,10.12
2023-02-16T17:30:02.045Z,9.98
2023-02-16T17:33:04.024Z,9.85
2023-02-16T17:36:07.469Z,9.75
2023-02-16T17:39:09.177Z,9.59
2023-02-16T17:42:11.480Z,9.45
2023-02-16T17:45:18.863Z,9.32
2023-02-16T17:48:27.993Z,9.20
2023-02-16T17:51:31.713Z,9.09
2023-02-16T17:54:33.300Z,9.01
2023-02-16T17:57:35.248Z,8.94
2023-02-16T18:00:38.034Z,8.88
2023-02-16T18:03:39.801Z,8.82
2023-02-16T18:06:41.336Z,8.76
2023-02-16T18:09:42.927Z,8.69
2023-02-16T18:12:44.560Z,8.61
2023-02-16T18:15:48.245Z,8.56
2023-02-16T18:18:49.792Z,8.50
2023-02-16T18:21:51.362Z,8.44
2023-02-16T18:24:52.937Z,8.32
2023-02-16T18:27:54.530Z,8.14
2023-02-16T18:30:56.858Z,7.94
2023-02-16T18:33:58.891Z,7.79
2023-02-16T18:37:00.761Z,7.72
2023-02-16T18:40:02.527Z,7.69
2023-02-16T18:43:04.174Z,7.66
2023-02-16T18:46:07.827Z,7.64
2023-02-16T18:49:09.581Z,7.58
2023-02-16T18:52:11.166Z,7.52
2023-02-16T18:55:13.434Z,7.53
2023-02-16T18:58:15.174Z,7.52
2023-02-16T19:01:27.444Z,7.48
2023-02-16T19:04:29.433Z,7.42
2023-02-16T19:07:31.006Z,7.37
2023-02-16T19:10:33.410Z,7.30
2023-02-16T19:13:34.953Z,7.26
2023-02-16T19:16:36.673Z,7.23
2023-02-16T19:19:38.473Z,7.21
2023-02-16T19:22:40.247Z,7.13
2023-02-16T19:25:41.792Z,7.05
2023-02-16T19:28:43.405Z,6.98
2023-02-16T19:31:44.934Z,6.91
2023-02-16T19:34:46.612Z,6.84
2023-02-16T19:37:48.174Z,6.77
2023-02-16T19:40:49.901Z,6.68
2023-02-16T19:43:55.239Z,6.63
2023-02-16T19:46:56.871Z,6.61
2023-02-16T19:49:58.513Z,6.57
2023-02-16T19:53:00.091Z,6.50
2023-02-16T19:56:08.193Z,6.42
2023-02-16T19:59:10.045Z,6.36
2023-02-16T20:02:14.711Z,6.27
2023-02-16T20:05:16.673Z,6.19
2023-02-16T20:08:18.325Z,6.17
2023-02-16T20:11:21.878Z,6.11
2023-02-16T20:14:23.869Z,6.04
2023-02-16T20:17:26.301Z,5.99
2023-02-16T20:20:28.311Z,5.96
2023-02-16T20:23:30.109Z,5.97
2023-02-16T20:26:35.510Z,5.99
2023-02-16T20:29:37.843Z,5.99
2023-02-16T20:32:39.458Z,5.96
2023-02-16T20:35:42.505Z,5.89
2023-02-16T20:38:44.570Z,5.85
2023-02-16T20:41:46.292Z,5.83
2023-02-16T20:44:47.977Z,5.80
2023-02-16T20:47:49.566Z,5.78
2023-02-16T20:50:59.144Z,5.74
2023-02-16T20:54:01.641Z,5.70
2023-02-16T20:57:05.042Z,5.65
2023-02-16T21:00:18.524Z,5.61
2023-02-16T21:03:20.181Z,5.64
2023-02-16T21:06:22.418Z,5.68
2023-02-16T21:09:24.106Z,5.67
2023-02-16T21:12:25.828Z,5.62
2023-02-16T21:15:27.445Z,5.54
2023-02-16T21:18:29.171Z,5.43
2023-02-16T21:21:30.782Z,5.36
2023-02-16T21:24:32.415Z,5.32
2023-02-16T21:27:34.005Z,5.31
2023-02-16T21:30:35.705Z,5.30
2023-02-16T21:33:37.329Z,5.28
2023-02-16T21:36:39.110Z,5.23
2023-02-16T21:39:59.102Z,5.19
2023-02-16T21:43:00.746Z,5.12
2023-02-16T21:46:02.686Z,5.10
2023-02-16T21:49:06.782Z,5.08
2023-02-16T21:52:08.407Z,5.05
2023-02-16T21:55:28.585Z,4.99
2023-02-16T21:58:33.859Z,4.96
2023-02-16T22:01:42.630Z,4.95
2023-02-16T22:04:44.227Z,4.93
2023-02-16T22:07:45.978Z,4.93
2023-02-16T22:10:47.807Z,4.93
2023-02-16T22:13:53.877Z,4.91
2023-02-16T22:16:56.151Z,4.92
2023-02-16T22:19:57.749Z,4.92
2023-02-16T22:22:59.372Z,4.90
2023-02-16T22:26:01.737Z,4.90
2023-02-16T22:29:14.759Z,4.91
2023-02-16T22:32:25.112Z,4.94
2023-02-16T22:35:26.769Z,4.98
2023-02-16T22:38:28.431Z,5.00
2023-02-16T22:41:30.400Z,5.03
2023-02-16T22:44:31.953Z,5.05
2023-02-16T22:47:33.556Z,5.04
2023-02-16T22:50:35.195Z,5.08
2023-02-16T22:53:38.643Z,5.12
2023-02-16T22:56:40.960Z,5.11
2023-02-16T22:59:42.514Z,5.10
2023-02-16T23:02:44.113Z,5.10
2023-02-16T23:05:45.955Z,5.10
2023-02-16T23:08:52.370Z,5.09
2023-02-16T23:11:53.989Z,5.11
2023-02-16T23:14:55.634Z,5.15
2023-02-16T23:17:57.293Z,5.22
2023-02-16T23:21:07.068Z,5.30
2023-02-16T23:24:13.333Z,5.37
2023-02-16T23:27:14.883Z,5.43
2023-02-16T23:30:16.618Z,5.45
2023-02-16T23:33:18.215Z,5.46
2023-02-16T23:36:19.801Z,5.46
2023-02-16T23:39:21.398Z,5.46
2023-02-16T23:42:22.970Z,5.46
2023-02-16T23:45:24.616Z,5.47
2023-02-16T23:48:26.426Z,5.49
2023-02-16T23:51:28.402Z,5.50
2023-02-16T23:54:30.007Z,5.51
2023-02-16T23:57:31.696Z,5.51
